Time;durP1;ratioP1;P1;durP2;ratioP2;P2;SDS_P1;SDS_P2;PMS_P1;PMS_P2;Temp;Humidity;BMP_temperature;BMP_pressure;BME280_temperature;BME280_humidity;BME280_pressure;Samples;Min_cycle;Max_cycle;Signal;HPM_P1;HPM_P2
2020/12/26 00:01:53;;;;;;;;;;;;;;;;;;6305949;22;19899;-85
2020/12/26 00:04:19;;;;;;;;;;;;;;;;;;6306257;22;19910;-85
2020/12/26 00:06:45;;;;;;;;;;;;;;;;;;6304811;22;19906;-84
2020/12/26 00:09:11;;;;;;;;;;;;;;;;;;6306134;22;19923;-85
2020/12/26 00:11:37;;;;;;;;;;;;;;;;;;6306775;22;19898;-85
2020/12/26 00:14:03;;;;;;;;;;;;;;;;;;6306524;22;19903;-84
2020/12/26 00:16:29;;;;;;;;;;;;;;;;;;6306618;22;19904;-85
2020/12/26 00:18:55;;;;;;;;;;;;;;;;;;6306197;22;19898;-84
2020/12/26 00:21:21;;;;;;;;;;;;;;;;;;6306272;22;19928;-85
2020/12/26 00:23:47;;;;;;;;;;;;;;;;;;6306122;22;19914;-84
2020/12/26 00:26:13;;;;;;;;;;;;;;;;;;6304439;22;20350;-85
2020/12/26 00:28:39;;;;;;;;;;;;;;;;;;6306203;22;19996;-85
2020/12/26 00:31:04;;;;;;;;;;;;;;;;;;6305754;22;19985;-84
2020/12/26 00:33:30;;;;;;;;;;;;;;;;;;6305846;22;20410;-85
2020/12/26 00:35:56;;;;;;;;;;;;;;;;;;6305259;22;19905;-85
2020/12/26 00:38:22;;;;;;;;;;;;;;;;;;6305990;22;19960;-85
2020/12/26 00:40:48;;;;;;;;;;;;;;;;;;6305919;22;20316;-85
2020/12/26 00:43:14;;;;;;;;;;;;;;;;;;6305900;22;19911;-85
2020/12/26 00:45:40;;;;;;;;;;;;;;;;;;6306351;22;20232;-85
2020/12/26 00:48:06;;;;;;;;;;;;;;;;;;6306132;22;20384;-85
2020/12/26 00:50:32;;;;;;;;;;;;;;;;;;6307595;22;19905;-87
2020/12/26 00:52:57;;;;;;;;;;;;;;;;;;6307576;22;20332;-90
2020/12/26 00:55:23;;;;;;;;;;;;;;;;;;6307049;22;19899;-82
2020/12/26 00:57:49;;;;;;;;;;;;;;;;;;6306758;22;19906;-86
2020/12/26 01:00:15;;;;;;;;;;;;;;;;;;6315031;22;19899;-89
2020/12/26 01:02:41;;;;;;;;;;;;;;;;;;6308266;22;20270;-89
2020/12/26 01:05:07;;;;;;;;;;;;;;;;;;6309842;22;19918;-89
2020/12/26 01:07:33;;;;;;;;;;;;;;;;;;6308946;22;19906;-88
2020/12/26 01:09:59;;;;;;;;;;;;;;;;;;6308898;22;20324;-89
2020/12/26 01:12:25;;;;;;;;;;;;;;;;;;6308947;22;19899;-89
2020/12/26 01:14:51;;;;;;;;;;;;;;;;;;6306702;22;20332;-89
2020/12/26 01:17:16;;;;;;;;;;;;;;;;;;6307530;22;19925;-88
2020/12/26 01:19:44;;;;;;;;;;;;;;;;;;6308692;22;19899;-89
2020/12/26 01:22:10;;;;;;;;;;;;;;;;;;6308559;22;19899;-89
2020/12/26 01:24:36;;;;;;;;;;;;;;;;;;6308810;22;19917;-88
2020/12/26 01:27:01;;;;;;;;;;;;;;;;;;6307867;22;20246;-88
2020/12/26 01:29:27;;;;;;;;;;;;;;;;;;6308297;22;19902;-87
2020/12/26 01:31:53;;;;;;;;;;;;;;;;;;6308922;22;19929;-88
2020/12/26 01:34:19;;;;;;;;;;;;;;;;;;6309627;22;19903;-87
2020/12/26 01:36:45;;;;;;;;;;;;;;;;;;6308753;22;19899;-87
2020/12/26 01:39:11;;;;;;;;;;;;;;;;;;6308800;22;19899;-87
2020/12/26 01:41:37;;;;;;;;;;;;;;;;;;6308515;22;19899;-87
2020/12/26 01:44:03;;;;;;;;;;;;;;;;;;6308257;22;20320;-86
2020/12/26 01:46:28;;;;;;;;;;;;;;;;;;6327271;22;19926;-86
2020/12/26 01:48:54;;;;;;;;;;;;;;;;;;6326303;22;19899;-87
2020/12/26 01:51:20;;;;;;;;;;;;;;;;;;6327047;22;19903;-87
2020/12/26 01:53:46;;;;;;;;;;;;;;;;;;6323578;22;19972;-86
2020/12/26 01:56:12;;;;;;;;;;;;;;;;;;6321512;22;19906;-87
2020/12/26 01:58:38;;;;;;;;;;;;;;;;;;6311396;22;19899;-86
2020/12/26 02:01:04;;;;;;;;;;;;;;;;;;6308556;22;19899;-86
2020/12/26 02:03:30;;;;;;;;;;;;;;;;;;6318203;22;19894;-88
2020/12/26 02:05:56;;;;;;;;;;;;;;;;;;6329481;22;19902;-88
2020/12/26 02:08:22;;;;;;;;;;;;;;;;;;6330201;22;19912;-87
2020/12/26 02:10:47;;;;;;;;;;;;;;;;;;6329831;22;19989;-87
2020/12/26 02:13:13;;;;;;;;;;;;;;;;;;6318628;22;19985;-87
2020/12/26 02:15:39;;;;;;;;;;;;;;;;;;6312913;22;19903;-88
2020/12/26 02:18:05;;;;;;;;;;;;;;;;;;6319862;22;19902;-87
2020/12/26 02:20:31;;;;;;;;;;;;;;;;;;6319007;22;19946;-87
2020/12/26 02:22:57;;;;;;;;;;;;;;;;;;6308494;22;20375;-87
2020/12/26 02:25:23;;;;;;;;;;;;;;;;;;6310568;22;19905;-87
2020/12/26 02:27:49;;;;;;;;;;;;;;;;;;6307052;22;20437;-87
2020/12/26 02:30:14;;;;;;;;;;;;;;;;;;6308833;22;19906;-88
2020/12/26 02:32:40;;;;;;;;;;;;;;;;;;6308206;22;20335;-87
2020/12/26 02:35:06;;;;;;;;;;;;;;;;;;6309059;22;19903;-87
2020/12/26 02:37:32;;;;;;;;;;;;;;;;;;6309506;22;20371;-87
2020/12/26 02:39:58;;;;;;;;;;;;;;;;;;6309251;22;19953;-87
2020/12/26 02:42:24;;;;;;;;;;;;;;;;;;6308922;22;19906;-86
2020/12/26 02:44:51;;;;;;;;;;;;;;;;;;6308886;22;20339;-87
2020/12/26 02:47:17;;;;;;;;;;;;;;;;;;6308932;22;19899;-87
2020/12/26 02:49:43;;;;;;;;;;;;;;;;;;6309478;22;19903;-88
2020/12/26 02:52:09;;;;;;;;;;;;;;;;;;6309267;22;19907;-88
2020/12/26 02:54:34;;;;;;;;;;;;;;;;;;6307886;22;19898;-87
2020/12/26 02:57:00;;;;;;;;;;;;;;;;;;6309479;22;19909;-87
2020/12/26 02:59:26;;;;;;;;;;;;;;;;;;6309457;22;19903;-86
2020/12/26 03:01:52;;;;;;;;;;;;;;;;;;6308442;22;19948;-86
2020/12/26 03:04:18;;;;;;;;;;;;;;;;;;6309078;22;19929;-86
2020/12/26 03:06:44;;;;;;;;;;;;;;;;;;6309060;22;19929;-86
2020/12/26 03:09:10;;;;;;;;;;;;;;;;;;6309269;22;19898;-86
2020/12/26 03:11:36;;;;;;;;;;;;;;;;;;6308529;22;19902;-86
2020/12/26 03:14:02;;;;;;;;;;;;;;;;;;6308330;22;19898;-86
2020/12/26 03:16:27;;;;;;;;;;;;;;;;;;6308329;22;19898;-86
2020/12/26 03:18:53;;;;;;;;;;;;;;;;;;6307579;22;19921;-86
2020/12/26 03:21:19;;;;;;;;;;;;;;;;;;6308682;22;19907;-87
2020/12/26 03:23:46;;;;;;;;;;;;;;;;;;6308675;22;19907;-86
2020/12/26 03:26:12;;;;;;;;;;;;;;;;;;6308821;22;19963;-86
2020/12/26 03:28:38;;;;;;;;;;;;;;;;;;6308181;22;20312;-86
2020/12/26 03:31:04;;;;;;;;;;;;;;;;;;6307901;22;19903;-86
2020/12/26 03:33:30;;;;;;;;;;;;;;;;;;6306708;22;20264;-87
2020/12/26 03:35:56;;;;;;;;;;;;;;;;;;6306029;22;19898;-87
2020/12/26 03:38:21;;;;;;;;;;;;;;;;;;6308424;22;20274;-87
2020/12/26 03:40:47;;;;;;;;;;;;;;;;;;6308145;22;19914;-87
2020/12/26 03:43:13;;;;;;;;;;;;;;;;;;6308269;22;20220;-86
2020/12/26 03:45:39;;;;;;;;;;;;;;;;;;6308204;22;19913;-86
2020/12/26 03:48:05;;;;;;;;;;;;;;;;;;6308217;22;19913;-87
2020/12/26 03:50:31;;;;;;;;;;;;;;;;;;6308506;22;19930;-86
2020/12/26 03:52:57;;;;;;;;;;;;;;;;;;6307617;22;20024;-86
2020/12/26 03:55:23;;;;;;;;;;;;;;;;;;6308126;22;19898;-85
2020/12/26 03:57:49;;;;;;;;;;;;;;;;;;6307644;22;19902;-86
2020/12/26 04:00:14;;;;;;;;;;;;;;;;;;6307862;22;19899;-86
2020/12/26 04:02:40;;;;;;;;;;;;;;;;;;6307504;22;19899;-86
2020/12/26 04:05:06;;;;;;;;;;;;;;;;;;6306270;22;20021;-86
2020/12/26 04:07:32;;;;;;;;;;;;;;;;;;6308128;22;19906;-86
2020/12/26 04:09:58;;;;;;;;;;;;;;;;;;6308320;22;19917;-87
2020/12/26 04:12:24;;;;;;;;;;;;;;;;;;6308666;22;19903;-87
2020/12/26 04:14:50;;;;;;;;;;;;;;;;;;6308029;22;19903;-87
2020/12/26 04:17:16;;;;;;;;;;;;;;;;;;6308085;22;19906;-87
2020/12/26 04:19:42;;;;;;;;;;;;;;;;;;6308360;22;19899;-87
2020/12/26 04:22:07;;;;;;;;;;;;;;;;;;6307748;22;19914;-87
2020/12/26 04:24:33;;;;;;;;;;;;;;;;;;6306898;22;19933;-86
2020/12/26 04:26:59;;;;;;;;;;;;;;;;;;6308169;22;20339;-87
2020/12/26 04:29:25;;;;;;;;;;;;;;;;;;6308641;22;20266;-87
2020/12/26 04:31:51;;;;;;;;;;;;;;;;;;6307321;22;19903;-86
2020/12/26 04:34:17;;;;;;;;;;;;;;;;;;6308240;22;20181;-87
2020/12/26 04:36:43;;;;;;;;;;;;;;;;;;6307737;22;19934;-87
2020/12/26 04:39:09;;;;;;;;;;;;;;;;;;6307833;22;19909;-87
2020/12/26 04:41:35;;;;;;;;;;;;;;;;;;6306723;22;19907;-87
2020/12/26 04:44:01;;;;;;;;;;;;;;;;;;6307470;22;19917;-87
2020/12/26 04:46:27;;;;;;;;;;;;;;;;;;6307727;22;19906;-88
2020/12/26 04:48:53;;;;;;;;;;;;;;;;;;6307122;22;19918;-87
2020/12/26 04:51:19;;;;;;;;;;;;;;;;;;6306971;22;19899;-87
2020/12/26 04:53:45;;;;;;;;;;;;;;;;;;6308133;22;19903;-88
2020/12/26 04:56:11;;;;;;;;;;;;;;;;;;6307946;22;19899;-87
2020/12/26 04:58:37;;;;;;;;;;;;;;;;;;6307652;22;19907;-88
2020/12/26 05:01:03;;;;;;;;;;;;;;;;;;6307198;22;20331;-88
2020/12/26 05:03:29;;;;;;;;;;;;;;;;;;6307873;22;19917;-88
2020/12/26 05:05:55;;;;;;;;;;;;;;;;;;6308267;22;19990;-87
2020/12/26 05:08:21;;;;;;;;;;;;;;;;;;6307744;22;19903;-88
2020/12/26 05:10:47;;;;;;;;;;;;;;;;;;6307864;22;20331;-88
2020/12/26 05:13:13;;;;;;;;;;;;;;;;;;6305860;22;19913;-88
2020/12/26 05:15:39;;;;;;;;;;;;;;;;;;6307831;22;19903;-88
2020/12/26 05:18:05;;;;;;;;;;;;;;;;;;6307973;22;19922;-88
2020/12/26 05:20:31;;;;;;;;;;;;;;;;;;6307019;22;19906;-87
2020/12/26 05:22:57;;;;;;;;;;;;;;;;;;6308810;22;19903;-87
2020/12/26 05:25:22;;;;;;;;;;;;;;;;;;6309335;22;19978;-87
2020/12/26 05:27:48;;;;;;;;;;;;;;;;;;6308546;22;19905;-87
2020/12/26 05:30:14;;;;;;;;;;;;;;;;;;6307671;22;19921;-87
2020/12/26 05:32:40;;;;;;;;;;;;;;;;;;6307534;22;19899;-88
2020/12/26 05:35:06;;;;;;;;;;;;;;;;;;6308532;22;19903;-88
2020/12/26 05:37:32;;;;;;;;;;;;;;;;;;6315537;22;19906;-87
2020/12/26 05:39:58;;;;;;;;;;;;;;;;;;6311375;22;19985;-88
2020/12/26 05:42:24;;;;;;;;;;;;;;;;;;6306755;22;20323;-88
2020/12/26 05:44:50;;;;;;;;;;;;;;;;;;6320988;22;19910;-88
2020/12/26 05:47:15;;;;;;;;;;;;;;;;;;6330392;22;19922;-89
2020/12/26 05:49:41;;;;;;;;;;;;;;;;;;6331070;22;19891;-87
2020/12/26 05:52:07;;;;;;;;;;;;;;;;;;6332282;22;20409;-87
2020/12/26 05:54:33;;;;;;;;;;;;;;;;;;6332725;22;19887;-88
2020/12/26 05:56:59;;;;;;;;;;;;;;;;;;6331598;22;19990;-88
2020/12/26 05:59:25;;;;;;;;;;;;;;;;;;6333395;22;19951;-89
2020/12/26 06:01:51;;;;;;;;;;;;;;;;;;6329815;22;19976;-88
2020/12/26 06:04:17;;;;;;;;;;;;;;;;;;6315442;22;19960;-88
2020/12/26 06:06:43;;;;;;;;;;;;;;;;;;6310995;22;19956;-88
2020/12/26 06:09:09;;;;;;;;;;;;;;;;;;6310853;22;19910;-89
2020/12/26 06:11:35;;;;;;;;;;;;;;;;;;6308450;22;19922;-89
2020/12/26 06:14:00;;;;;;;;;;;;;;;;;;6309583;22;20262;-88
2020/12/26 06:16:26;;;;;;;;;;;;;;;;;;6309471;22;19899;-88
2020/12/26 06:18:52;;;;;;;;;;;;;;;;;;6310193;22;19899;-88
2020/12/26 06:21:18;;;;;;;;;;;;;;;;;;6310807;22;19899;-89
2020/12/26 06:23:44;;;;;;;;;;;;;;;;;;6308387;22;20377;-88
2020/12/26 06:26:10;;;;;;;;;;;;;;;;;;6309454;22;19899;-89
2020/12/26 06:28:36;;;;;;;;;;;;;;;;;;6309868;22;19903;-89
2020/12/26 06:31:02;;;;;;;;;;;;;;;;;;6309159;22;20285;-89
2020/12/26 06:33:28;;;;;;;;;;;;;;;;;;6307884;22;19973;-88
2020/12/26 06:35:54;;;;;;;;;;;;;;;;;;6308789;22;20220;-88
2020/12/26 06:38:19;;;;;;;;;;;;;;;;;;6309077;22;19910;-88
2020/12/26 06:40:45;;;;;;;;;;;;;;;;;;6309485;22;19918;-87
2020/12/26 06:43:11;;;;;;;;;;;;;;;;;;6308949;22;20369;-87
2020/12/26 06:45:37;;;;;;;;;;;;;;;;;;6309930;22;19903;-88
2020/12/26 06:48:03;;;;;;;;;;;;;;;;;;6308867;22;19899;-88
2020/12/26 06:50:29;;;;;;;;;;;;;;;;;;6308428;22;19992;-89
2020/12/26 06:52:55;;;;;;;;;;;;;;;;;;6309245;22;19902;-89
2020/12/26 06:55:21;;;;;;;;;;;;;;;;;;6309678;22;19934;-88
2020/12/26 06:57:47;;;;;;;;;;;;;;;;;;6309404;22;19899;-89
2020/12/26 07:00:13;;;;;;;;;;;;;;;;;;6309700;22;19899;-89
2020/12/26 07:02:38;;;;;;;;;;;;;;;;;;6309120;22;19903;-87
2020/12/26 07:05:04;;;;;;;;;;;;;;;;;;6309682;22;20208;-89
2020/12/26 07:07:30;;;;;;;;;;;;;;;;;;6310492;22;19906;-89
2020/12/26 07:09:56;;;;;;;;;;;;;;;;;;6310141;22;19899;-89
2020/12/26 07:12:22;;;;;;;;;;;;;;;;;;6310683;22;19899;-89
2020/12/26 07:14:49;;;;;;;;;;;;;;;;;;6308053;22;19906;-89
2020/12/26 07:17:15;;;;;;;;;;;;;;;;;;6310560;22;19899;-89
2020/12/26 07:19:41;;;;;;;;;;;;;;;;;;6310767;22;19910;-88
2020/12/26 07:22:07;;;;;;;;;;;;;;;;;;6310476;22;20457;-89
2020/12/26 07:24:33;;;;;;;;;;;;;;;;;;6310755;22;19906;-90
2020/12/26 07:26:59;;;;;;;;;;;;;;;;;;6307654;22;19944;-88
2020/12/26 07:29:25;;;;;;;;;;;;;;;;;;6309565;22;19908;-88
2020/12/26 07:31:50;;;;;;;;;;;;;;;;;;6306725;22;19933;-86
2020/12/26 07:34:16;;;;;;;;;;;;;;;;;;6308569;22;19921;-92
2020/12/26 07:36:42;;;;;;;;;;;;;;;;;;6311914;22;19905;-93
2020/12/26 07:39:08;;;;;;;;;;;;;;;;;;6311393;22;19913;-93
2020/12/26 07:41:34;;;;;;;;;;;;;;;;;;6312136;22;19911;-93
2020/12/26 07:44:00;;;;;;;;;;;;;;;;;;6311834;22;19907;-92
2020/12/26 07:46:26;;;;;;;;;;;;;;;;;;6311504;22;19906;-94
2020/12/26 07:48:52;;;;;;;;;;;;;;;;;;6311964;22;19905;-94
2020/12/26 07:51:18;;;;;;;;;;;;;;;;;;6312620;22;19899;-93
2020/12/26 07:53:43;;;;;;;;;;;;;;;;;;6312721;22;20304;-94
2020/12/26 07:56:09;;;;;;;;;;;;;;;;;;6312142;22;19905;-93
2020/12/26 07:58:35;;;;;;;;;;;;;;;;;;6312219;22;20296;-93
2020/12/26 08:01:01;;;;;;;;;;;;;;;;;;6312320;22;19906;-95
2020/12/26 08:03:27;;;;;;;;;;;;;;;;;;6310273;22;19911;-94
2020/12/26 08:05:53;;;;;;;;;;;;;;;;;;6312820;22;19959;-94
2020/12/26 08:08:24;;;;;;;;;;;;;;;;;;6311531;22;19906;-94
2020/12/26 08:10:50;;;;;;;;;;;;;;;;;;6312183;22;19986;-92
2020/12/26 08:13:16;;;;;;;;;;;;;;;;;;6311845;22;19899;-93
2020/12/26 08:15:42;;;;;;;;;;;;;;;;;;6312256;22;19906;-93
2020/12/26 08:18:08;;;;;;;;;;;;;;;;;;6310288;22;19929;-92
2020/12/26 08:20:34;;;;;;;;;;;;;;;;;;6311219;22;19906;-93
2020/12/26 08:23:00;;;;;;;;;;;;;;;;;;6307513;22;19903;-94
2020/12/26 08:25:25;;;;;;;;;;;;;;;;;;6308673;22;20338;-87
2020/12/26 08:27:51;;;;;;;;;;;;;;;;;;6308017;22;19903;-88
2020/12/26 08:30:17;;;;;;;;;;;;;;;;;;6306930;22;20316;-84
2020/12/26 08:32:43;;;;;;;;;;;;;;;;;;6305457;22;19925;-85
2020/12/26 08:35:09;;;;;;;;;;;;;;;;;;6305929;22;19934;-83
2020/12/26 08:37:35;;;;;;;;;;;;;;;;;;6305259;22;19899;-84
2020/12/26 08:40:01;;;;;;;;;;;;;;;;;;6304339;22;19917;-85
2020/12/26 08:42:27;;;;;;;;;;;;;;;;;;6304958;22;19901;-83
2020/12/26 08:44:52;;;;;;;;;;;;;;;;;;6305104;22;20341;-84
2020/12/26 08:47:18;;;;;;;;;;;;;;;;;;6305455;22;19899;-84
2020/12/26 08:49:45;;;;;;;;;;;;;;;;;;6305289;22;19899;-84
2020/12/26 08:52:11;;;;;;;;;;;;;;;;;;6304272;22;19899;-83
2020/12/26 08:54:37;;;;;;;;;;;;;;;;;;6304004;22;20334;-84
2020/12/26 08:57:02;;;;;;;;;;;;;;;;;;6305896;22;19976;-84
2020/12/26 08:59:28;;;;;;;;;;;;;;;;;;6306381;22;19903;-84
2020/12/26 09:01:54;;;;;;;;;;;;;;;;;;6307933;22;20308;-75
2020/12/26 09:04:20;;;;;;;;;;;;;;;;;;6305650;22;20675;-84
2020/12/26 09:06:46;;;;;;;;;;;;;;;;;;6305283;22;20445;-83
2020/12/26 09:09:12;;;;;;;;;;;;;;;;;;6305990;22;19898;-84
2020/12/26 09:11:38;;;;;;;;;;;;;;;;;;6305614;22;19902;-84
2020/12/26 09:14:04;;;;;;;;;;;;;;;;;;6303131;22;19903;-85
2020/12/26 09:16:30;;;;;;;;;;;;;;;;;;6306482;22;20308;-84
2020/12/26 09:18:56;;;;;;;;;;;;;;;;;;6305117;22;19906;-84
2020/12/26 09:21:21;;;;;;;;;;;;;;;;;;6303519;22;20337;-83
2020/12/26 09:23:48;;;;;;;;;;;;;;;;;;6304248;22;19906;-83
2020/12/26 09:26:13;;;;;;;;;;;;;;;;;;6305830;22;19930;-83
2020/12/26 09:28:39;;;;;;;;;;;;;;;;;;6305267;22;19907;-82
2020/12/26 09:31:05;;;;;;;;;;;;;;;;;;6305383;22;19903;-81
2020/12/26 09:33:33;;;;;;;;;;;;;;;;;;6304690;22;19899;-84
2020/12/26 09:35:58;;;;;;;;;;;;;;;;;;6304876;22;19931;-81
2020/12/26 09:38:24;;;;;;;;;;;;;;;;;;6303755;22;19898;-83
2020/12/26 09:40:50;;;;;;;;;;;;;;;;;;6305303;22;19919;-83
2020/12/26 09:43:16;;;;;;;;;;;;;;;;;;6303750;22;19899;-84
2020/12/26 09:45:42;;;;;;;;;;;;;;;;;;6304199;22;19949;-83
2020/12/26 09:48:08;;;;;;;;;;;;;;;;;;6310885;22;19926;-84
2020/12/26 09:50:34;;;;;;;;;;;;;;;;;;6317812;22;19948;-87
2020/12/26 09:53:00;;;;;;;;;;;;;;;;;;6325682;22;19926;-87
2020/12/26 09:55:25;;;;;;;;;;;;;;;;;;6333667;22;19910;-90
2020/12/26 09:57:51;;;;;;;;;;;;;;;;;;6321262;22;20350;-89
2020/12/26 10:00:17;;;;;;;;;;;;;;;;;;6312340;22;20051;-90
2020/12/26 10:02:43;;;;;;;;;;;;;;;;;;6309535;22;19910;-87
2020/12/26 10:05:09;;;;;;;;;;;;;;;;;;6308425;22;19907;-87
2020/12/26 10:07:35;;;;;;;;;;;;;;;;;;6307554;22;19944;-87
2020/12/26 10:10:01;;;;;;;;;;;;;;;;;;6307103;22;19981;-87
2020/12/26 10:12:27;;;;;;;;;;;;;;;;;;6314494;22;19957;-83
2020/12/26 10:14:53;;;;;;;;;;;;;;;;;;6304113;22;19905;-81
2020/12/26 10:17:19;;;;;;;;;;;;;;;;;;6304847;22;19903;-80
2020/12/26 10:19:44;;;;;;;;;;;;;;;;;;6304918;22;19899;-81
2020/12/26 10:22:11;;;;;;;;;;;;;;;;;;6302716;22;20239;-82
2020/12/26 10:24:36;;;;;;;;;;;;;;;;;;6304607;22;20006;-81
2020/12/26 10:27:02;;;;;;;;;;;;;;;;;;6304547;22;19938;-81
2020/12/26 10:29:28;;;;;;;;;;;;;;;;;;6305863;22;19903;-82
2020/12/26 10:31:54;;;;;;;;;;;;;;;;;;6304155;22;19899;-82
2020/12/26 10:34:20;;;;;;;;;;;;;;;;;;6304469;22;19981;-82
2020/12/26 10:36:46;;;;;;;;;;;;;;;;;;6304062;22;19903;-82
2020/12/26 10:39:12;;;;;;;;;;;;;;;;;;6303999;22;19968;-81
2020/12/26 10:41:39;;;;;;;;;;;;;;;;;;6304507;22;20343;-82
2020/12/26 10:44:05;;;;;;;;;;;;;;;;;;6302687;22;19917;-82
2020/12/26 10:46:30;;;;;;;;;;;;;;;;;;6302608;22;19964;-82
2020/12/26 10:48:56;;;;;;;;;;;;;;;;;;6304503;22;19903;-85
2020/12/26 10:51:22;;;;;;;;;;;;;;;;;;6304265;22;19903;-85
2020/12/26 10:53:48;;;;;;;;;;;;;;;;;;6304803;22;19910;-85
2020/12/26 10:56:14;;;;;;;;;;;;;;;;;;6305859;22;19899;-85
2020/12/26 10:58:40;;;;;;;;;;;;;;;;;;6305925;22;19898;-86
2020/12/26 11:01:06;;;;;;;;;;;;;;;;;;6304269;22;19909;-86
2020/12/26 11:03:32;;;;;;;;;;;;;;;;;;6304384;22;19910;-85
2020/12/26 11:05:59;;;;;;;;;;;;;;;;;;6303633;22;19899;-87
2020/12/26 11:08:26;;;;;;;;;;;;;;;;;;6303847;22;19906;-86
2020/12/26 11:10:51;;;;;;;;;;;;;;;;;;6305379;22;19981;-82
2020/12/26 11:13:17;;;;;;;;;;;;;;;;;;6305311;22;19930;-82
2020/12/26 11:15:43;;;;;;;;;;;;;;;;;;6305618;22;20307;-82
2020/12/26 11:18:09;;;;;;;;;;;;;;;;;;6306556;22;19899;-83
2020/12/26 11:20:35;;;;;;;;;;;;;;;;;;6307367;22;20354;-83
2020/12/26 11:23:01;;;;;;;;;;;;;;;;;;6304570;22;19906;-85
2020/12/26 11:25:27;;;;;;;;;;;;;;;;;;6307420;22;20367;-87
2020/12/26 11:27:53;;;;;;;;;;;;;;;;;;6304526;22;19906;-86
2020/12/26 11:30:18;;;;;;;;;;;;;;;;;;6305779;22;19925;-86
2020/12/26 11:32:44;;;;;;;;;;;;;;;;;;6306734;22;19907;-86
2020/12/26 11:35:10;;;;;;;;;;;;;;;;;;6306709;22;19903;-85
2020/12/26 11:37:36;;;;;;;;;;;;;;;;;;6306166;22;19903;-85
2020/12/26 11:40:02;;;;;;;;;;;;;;;;;;6307785;22;19906;-85
2020/12/26 11:42:28;;;;;;;;;;;;;;;;;;6307447;22;19899;-86
2020/12/26 11:44:54;;;;;;;;;;;;;;;;;;6308153;22;19914;-85
2020/12/26 11:47:20;;;;;;;;;;;;;;;;;;6306283;22;19907;-85
2020/12/26 11:49:47;;;;;;;;;;;;;;;;;;6307314;22;19899;-86
2020/12/26 11:52:13;;;;;;;;;;;;;;;;;;6308217;22;19909;-86
2020/12/26 11:54:39;;;;;;;;;;;;;;;;;;6307990;22;20289;-87
2020/12/26 11:57:05;;;;;;;;;;;;;;;;;;6307497;22;19981;-85
2020/12/26 11:59:31;;;;;;;;;;;;;;;;;;6307770;22;19937;-86
2020/12/26 12:01:56;;;;;;;;;;;;;;;;;;6307793;22;19906;-86
2020/12/26 12:04:22;;;;;;;;;;;;;;;;;;6308922;22;19930;-86
2020/12/26 12:06:48;;;;;;;;;;;;;;;;;;6307320;22;20244;-86
2020/12/26 12:09:14;;;;;;;;;;;;;;;;;;6306218;22;19977;-85
2020/12/26 12:11:40;;;;;;;;;;;;;;;;;;6304673;22;19903;-86
2020/12/26 12:14:07;;;;;;;;;;;;;;;;;;6306238;22;19956;-86
2020/12/26 12:16:33;;;;;;;;;;;;;;;;;;6304921;22;20037;-87
2020/12/26 12:18:59;;;;;;;;;;;;;;;;;;6305822;22;19906;-87
2020/12/26 12:21:25;;;;;;;;;;;;;;;;;;6303798;22;19899;-86
2020/12/26 12:23:51;;;;;;;;;;;;;;;;;;6306395;22;19929;-88
2020/12/26 12:26:16;;;;;;;;;;;;;;;;;;6305973;22;20320;-86
2020/12/26 12:28:42;;;;;;;;;;;;;;;;;;6305869;22;20351;-86
2020/12/26 12:31:08;;;;;;;;;;;;;;;;;;6305053;22;19902;-86
2020/12/26 12:33:34;;;;;;;;;;;;;;;;;;6306484;22;20234;-87
2020/12/26 12:36:03;;;;;;;;;;;;;;;;;;6306058;22;20276;-85
2020/12/26 12:38:29;;;;;;;;;;;;;;;;;;6305691;22;19910;-84
2020/12/26 12:40:55;;;;;;;;;;;;;;;;;;6305035;22;19945;-87
2020/12/26 12:43:21;;;;;;;;;;;;;;;;;;6306306;22;19903;-87
2020/12/26 12:45:47;;;;;;;;;;;;;;;;;;6306017;22;20362;-88
2020/12/26 12:48:13;;;;;;;;;;;;;;;;;;6305936;22;19905;-86
2020/12/26 12:50:39;;;;;;;;;;;;;;;;;;6305684;22;20342;-87
2020/12/26 12:53:05;;;;;;;;;;;;;;;;;;6305352;22;19972;-86
2020/12/26 12:55:30;;;;;;;;;;;;;;;;;;6305631;22;19903;-84
2020/12/26 12:57:56;;;;;;;;;;;;;;;;;;6303195;22;19906;-89
2020/12/26 13:00:22;;;;;;;;;;;;;;;;;;6308450;22;19902;-87
2020/12/26 13:02:48;;;;;;;;;;;;;;;;;;6310248;22;19909;-88
2020/12/26 13:05:14;;;;;;;;;;;;;;;;;;6313058;22;20334;-88
2020/12/26 13:07:43;;;;;;;;;;;;;;;;;;6310028;22;19929;-87
2020/12/26 13:10:09;;;;;;;;;;;;;;;;;;6308048;22;19899;-90
2020/12/26 13:12:35;;;;;;;;;;;;;;;;;;6318306;22;19905;-89
2020/12/26 13:15:01;;;;;;;;;;;;;;;;;;6319788;22;19898;-91
2020/12/26 13:17:26;;;;;;;;;;;;;;;;;;6318284;22;19922;-89
2020/12/26 13:19:52;;;;;;;;;;;;;;;;;;6317498;22;19899;-91
2020/12/26 13:22:18;;;;;;;;;;;;;;;;;;6315900;22;19902;-90
2020/12/26 13:24:44;;;;;;;;;;;;;;;;;;6315538;22;19914;-90
2020/12/26 13:27:10;;;;;;;;;;;;;;;;;;6314843;22;19910;-86
2020/12/26 13:29:36;;;;;;;;;;;;;;;;;;6310702;22;20232;-91
2020/12/26 13:32:02;;;;;;;;;;;;;;;;;;6316135;22;19883;-90
2020/12/26 13:34:28;;;;;;;;;;;;;;;;;;6325162;22;19930;-84
2020/12/26 13:36:54;;;;;;;;;;;;;;;;;;6309236;22;19906;-83
2020/12/26 13:39:20;;;;;;;;;;;;;;;;;;6309705;22;19989;-84
2020/12/26 13:41:46;;;;;;;;;;;;;;;;;;6304509;22;20007;-84
2020/12/26 13:44:12;;;;;;;;;;;;;;;;;;6300481;22;19917;-84
2020/12/26 13:46:38;;;;;;;;;;;;;;;;;;6302938;22;19918;-82
2020/12/26 13:49:04;;;;;;;;;;;;;;;;;;6303318;22;19899;-83
2020/12/26 13:51:30;;;;;;;;;;;;;;;;;;6304906;22;19961;-82
2020/12/26 13:53:56;;;;;;;;;;;;;;;;;;6304636;22;19899;-82
2020/12/26 13:56:22;;;;;;;;;;;;;;;;;;6304672;22;19994;-82
2020/12/26 13:58:48;;;;;;;;;;;;;;;;;;6304376;22;19935;-83
2020/12/26 14:01:14;;;;;;;;;;;;;;;;;;6304488;22;19952;-82
2020/12/26 14:03:40;;;;;;;;;;;;;;;;;;6303883;22;19917;-82
2020/12/26 14:06:08;;;;;;;;;;;;;;;;;;6304896;22;20588;-83
2020/12/26 14:08:34;;;;;;;;;;;;;;;;;;6304996;22;19899;-83
2020/12/26 14:10:59;;;;;;;;;;;;;;;;;;6305209;22;19982;-83
2020/12/26 14:13:25;;;;;;;;;;;;;;;;;;6306217;22;20235;-82
2020/12/26 14:15:51;;;;;;;;;;;;;;;;;;6306544;22;19989;-83
2020/12/26 14:18:17;;;;;;;;;;;;;;;;;;6307173;22;19898;-83
2020/12/26 14:20:43;;;;;;;;;;;;;;;;;;6308544;22;19903;-82
2020/12/26 14:23:09;;;;;;;;;;;;;;;;;;6309042;22;19949;-82
2020/12/26 14:25:35;;;;;;;;;;;;;;;;;;6308664;22;20333;-81
2020/12/26 14:28:01;;;;;;;;;;;;;;;;;;6307865;22;20478;-80
2020/12/26 14:30:27;;;;;;;;;;;;;;;;;;6306814;22;19978;-80
2020/12/26 14:32:52;;;;;;;;;;;;;;;;;;6306977;22;19978;-79
2020/12/26 14:35:18;;;;;;;;;;;;;;;;;;6306915;22;19899;-80
2020/12/26 14:37:44;;;;;;;;;;;;;;;;;;6307804;22;19952;-79
2020/12/26 14:40:12;;;;;;;;;;;;;;;;;;6308403;22;20342;-79
2020/12/26 14:42:38;;;;;;;;;;;;;;;;;;6307445;22;19969;-79
2020/12/26 14:45:04;;;;;;;;;;;;;;;;;;6305002;22;19968;-80
2020/12/26 14:47:30;;;;;;;;;;;;;;;;;;6311510;22;19913;-80
2020/12/26 14:49:56;;;;;;;;;;;;;;;;;;6305465;22;19909;-85
2020/12/26 14:52:22;;;;;;;;;;;;;;;;;;6305515;22;20317;-82
2020/12/26 14:54:47;;;;;;;;;;;;;;;;;;6304442;22;19899;-82
2020/12/26 14:57:13;;;;;;;;;;;;;;;;;;6305875;22;19922;-83
2020/12/26 14:59:39;;;;;;;;;;;;;;;;;;6305235;22;20235;-84
2020/12/26 15:02:05;;;;;;;;;;;;;;;;;;6305481;22;19909;-83
2020/12/26 15:04:31;;;;;;;;;;;;;;;;;;6305910;22;19907;-83
2020/12/26 15:06:57;;;;;;;;;;;;;;;;;;6306028;22;19899;-83
2020/12/26 15:09:23;;;;;;;;;;;;;;;;;;6305058;22;19902;-85
2020/12/26 15:11:49;;;;;;;;;;;;;;;;;;6307020;22;19969;-90
2020/12/26 15:14:15;;;;;;;;;;;;;;;;;;6305485;22;19925;-82
2020/12/26 15:16:41;;;;;;;;;;;;;;;;;;6306298;22;19899;-84
2020/12/26 15:19:07;;;;;;;;;;;;;;;;;;6306813;22;19989;-84
2020/12/26 15:21:33;;;;;;;;;;;;;;;;;;6306167;22;19903;-85
2020/12/26 15:23:58;;;;;;;;;;;;;;;;;;6306081;22;19906;-83
2020/12/26 15:26:24;;;;;;;;;;;;;;;;;;6306127;22;19926;-83
2020/12/26 15:28:50;;;;;;;;;;;;;;;;;;6306256;22;20495;-83
2020/12/26 15:31:17;;;;;;;;;;;;;;;;;;6305132;22;19899;-83
2020/12/26 15:33:43;;;;;;;;;;;;;;;;;;6305668;22;19899;-82
2020/12/26 15:36:09;;;;;;;;;;;;;;;;;;6306548;22;19910;-81
2020/12/26 15:38:35;;;;;;;;;;;;;;;;;;6306401;22;19898;-81
2020/12/26 15:41:01;;;;;;;;;;;;;;;;;;6305314;22;19929;-82
2020/12/26 15:43:27;;;;;;;;;;;;;;;;;;6305890;22;19899;-82
2020/12/26 15:45:53;;;;;;;;;;;;;;;;;;6306417;22;19899;-85
2020/12/26 15:48:18;;;;;;;;;;;;;;;;;;6306502;22;19906;-89
2020/12/26 15:50:45;;;;;;;;;;;;;;;;;;6305606;22;20648;-84
2020/12/26 15:53:10;;;;;;;;;;;;;;;;;;6305921;22;19991;-84
2020/12/26 15:55:39;;;;;;;;;;;;;;;;;;6304555;22;19906;-85
2020/12/26 15:58:05;;;;;;;;;;;;;;;;;;6304716;22;19903;-84
2020/12/26 16:00:31;;;;;;;;;;;;;;;;;;6305739;22;19899;-83
2020/12/26 16:02:57;;;;;;;;;;;;;;;;;;6305449;22;19982;-84
2020/12/26 16:05:23;;;;;;;;;;;;;;;;;;6305745;22;20281;-85
2020/12/26 16:07:49;;;;;;;;;;;;;;;;;;6305645;22;19899;-82
2020/12/26 16:10:15;;;;;;;;;;;;;;;;;;6305242;22;19922;-83
2020/12/26 16:12:41;;;;;;;;;;;;;;;;;;6304200;22;19898;-85
2020/12/26 16:15:07;;;;;;;;;;;;;;;;;;6304259;22;19927;-83
2020/12/26 16:17:33;;;;;;;;;;;;;;;;;;6304992;22;20243;-82
2020/12/26 16:20:02;;;;;;;;;;;;;;;;;;6304967;22;19926;-83
2020/12/26 16:22:28;;;;;;;;;;;;;;;;;;6306294;22;19899;-83
2020/12/26 16:24:54;;;;;;;;;;;;;;;;;;6304638;22;20235;-84
2020/12/26 16:27:20;;;;;;;;;;;;;;;;;;6305377;22;19909;-83
2020/12/26 16:29:46;;;;;;;;;;;;;;;;;;6305824;22;20355;-85
2020/12/26 16:32:12;;;;;;;;;;;;;;;;;;6303304;22;20285;-80
2020/12/26 16:34:38;;;;;;;;;;;;;;;;;;6305417;22;19899;-81
2020/12/26 16:37:04;;;;;;;;;;;;;;;;;;6302556;22;19921;-82